Informes METAR más Próximos

 

KSJC - San Jose, California, USA
Distancia desde EA1HNP Meteo: NE 14km
Actualización: 19/05/2021 04:53
Poco nuboso
Poco nuboso
 Viento del N
Viento: N 15 km/h
Temperatura: 17°C
Rocío: 1°C
Humedad: 34%
Barómetro: 1016.9 hPa
Nubes: Poco nuboso
Visibilidad: 16 km
Detalle de nubes: Poco nuboso 3658 m
2021/05/19 02:53 KSJC 190253Z 35008KT 10SM FEW120 17/01 A3003 RMK AO2 SLP169 T01720011 50001
KNUQ - Moffett Nas/Mtn, California, USA
Distancia desde EA1HNP Meteo: N 14km
Actualización: 14/04/2021 00:40
Pendiente

 
2021/04/13 22:40 KNUQ 132240Z AUTO RMK AO2 PNO PWINO TSNO
 
KPAO - Palo Alto, California, USA
Distancia desde EA1HNP Meteo: NNO 23km
Actualización: 19/05/2021 04:47
Despejado
Despejado
 Viento del O
Viento: O 15 km/h
Temperatura: 16°C
Rocío: 2°C
Humedad: 39%
Barómetro: 1017.6 hPa
Nubes: Despejado
Visibilidad: 16 km
2021/05/19 02:47 KPAO 190247Z 27008KT 10SM SKC 16/02 A3005
KRHV - San Jose/Reid, California, USA
Distancia desde EA1HNP Meteo: ENE 19km
Actualización: 19/05/2021 04:47
Despejado
Despejado
 Viento del N
Viento: N 26 km/h
Temperatura: 18°C
Rocío: 0°C
Humedad: 30%
Barómetro: 1017.6 hPa
Nubes: Despejado
Visibilidad: 16 km
2021/05/19 02:47 KRHV 190247Z 36014KT 10SM SKC 18/00 A3005
 
KOAK - Oakland, California, USA
Distancia desde EA1HNP Meteo: NNO 50km
Actualización: 19/05/2021 04:53
Despejado
Despejado
 Viento del O
Viento: O 30 km/h
Temperatura: 14°C
Rocío: 7°C
Humedad: 63%
Barómetro: 1016.6 hPa
Nubes: Despejado
Visibilidad: 16 km
2021/05/19 02:53 KOAK 190253Z 27016KT 10SM CLR 14/07 A3002 RMK AO2 PK WND 27026/0227 SLP167 T01440072 58007
KSQL - San Carlos Airpo, California, USA
Distancia desde EA1HNP Meteo: NO 34km
Actualización: 19/05/2021 04:55
Despejado
Despejado
 Viento del SSO
Viento: SSO 28 km/h
Temperatura: 14°C
Rocío: 2°C
Humedad: 44%
Barómetro: 1017.9 hPa
Nubes: Despejado
Visibilidad: 16 km
2021/05/19 02:55 KSQL 190255Z 20015KT 10SM SKC 14/02 A3006
 
KSFO - San Francisco, California, USA
Distancia desde EA1HNP Meteo: NO 49km
Actualización: 19/05/2021 04:56
Poco nuboso
Poco nuboso
 Viento del O
Viento: O 19 km/h, Racha: 35 km/h
Temperatura: 14°C
Rocío: 7°C
Humedad: 63%
Barómetro: 1017.6 hPa
Nubes: Poco nuboso
Visibilidad: 16 km
Detalle de nubes: Poco nuboso 640 m
2021/05/19 02:56 KSFO 190256Z 28010G19KT 10SM FEW021 14/07 A3005 RMK AO2 SLP174 T01390067 53004
KE16 - San Martin, California, USA
Distancia desde EA1HNP Meteo: ESE 43km
Actualización: 19/05/2021 04:55
Despejado
Despejado
 Viento del NO
Viento: NO 24 km/h, Racha: 33 km/h
Temperatura: 19°C
Rocío: -2°C
Humedad: 24%
Barómetro: 1016.9 hPa
Nubes: Despejado
Visibilidad: 16 km
2021/05/19 02:55 KE16 190255Z AUTO 31013G18KT 10SM CLR 19/M02 A3003 RMK AO2 PWINO PNO
 
KWVI - Watsonville, California, USA
Distancia desde EA1HNP Meteo: SSE 44km
Actualización: 19/05/2021 04:53
Despejado
Despejado
 Viento del SE
Viento: SE 9 km/h
Temperatura: 15°C
Rocío: 9°C
Humedad: 68%
Barómetro: 1016.9 hPa
Nubes: Despejado
Visibilidad: 16 km
2021/05/19 02:53 KWVI 190253Z AUTO 14005KT 10SM CLR 15/09 A3003 RMK AO2 SLP170 T01500089 53004
KHAF - Half Moon Bay, California, USA
Distancia desde EA1HNP Meteo: ONO 50km
Actualización: 19/05/2021 04:55
Lluvia débil, Despejado
Lluvia débil, Despejado
 Viento del NNO
Viento: NNO 28 km/h, Racha: 37 km/h
Temperatura: 11°C
Rocío: 8°C
Humedad: 82%
Barómetro: 1018.6 hPa
Resumen: Lluvia débil
Nubes: Despejado
Visibilidad: 8 km
2021/05/19 02:55 KHAF 190255Z AUTO 33015G20KT 5SM -RA CLR 11/08 A3008 RMK AO2
 
KHWD - Hayward, California, USA
Distancia desde EA1HNP Meteo: N 44km
Actualización: 19/05/2021 04:54
Despejado
Despejado
 Viento del O
Viento: O 17 km/h
Temperatura: 14°C
Rocío: 6°C
Humedad: 59%
Barómetro: 1016.6 hPa
Nubes: Despejado
Visibilidad: 16 km
2021/05/19 02:54 KHWD 190254Z 26009KT 10SM CLR 14/06 A3002 RMK AO2 SLP177 T01440061 58007
KLVK - Livermore, California, USA
Distancia desde EA1HNP Meteo: NNE 51km
Actualización: 19/05/2021 04:53
Despejado
Despejado
 Viento del SSO
Viento: SSO 19 km/h
Temperatura: 15°C
Rocío: 3°C
Humedad: 45%
Barómetro: 1016.3 hPa
Nubes: Despejado
Visibilidad: 16 km
2021/05/19 02:53 KLVK 190253Z 20010KT 10SM CLR 15/03 A3001 RMK AO2 SLP161 T01500033 50001